SCC: Mid-Ohio practice three times

Pos Num Class Team Time Gap To 1st Speed --- --- ----- ------------------------------ ---------- ------- ------- ------- 1. 18 GS Race Prep Motorsports 1:34.842 85.709 2. 05...

Pos Num Class Team                                 Time     Gap  To 1st   Speed
--- --- ----- ------------------------------ ---------- ------- ------- -------
 1.  18 GS    Race Prep Motorsports            1:34.842                  85.709
 2.  05 GS    Multimatic Motorsports           1:35.446   0.604   0.604  85.166
 3.  40 GS    Team Sahlen                      1:35.607   0.161   0.765  85.023
 4.  99 GS    Anchor Racing                    1:35.614   0.007   0.772  85.017
 5.  35 GS    Schuitemaker Motorsports         1:35.643   0.029   0.801  84.991
 6.  93 GS    Anchor Racing                    1:35.674   0.031   0.832  84.964
 7.  16 GS    Zoom Motorsports                 1:35.799   0.125   0.957  84.853
 8.  17 GS    Doncaster Racing                 1:35.849   0.050   1.007  84.808
 9.  59 GS    Rehagen Racing                   1:35.910   0.061   1.068  84.754
10.   6 GS    Zoom Motorsports                 1:35.981   0.071   1.139  84.692
11.  38 GS    BGB Motorsports                  1:36.011   0.030   1.169  84.665
12.  11 GS    Powell Motorsport                1:36.024   0.013   1.182  84.654
13.  96 GS    Turner Motorsport                1:36.084   0.060   1.242  84.601
14.  88 GS    Knobel Racing                    1:36.134   0.050   1.292  84.557
15.   5 GS    Blackforest Motorsports          1:36.242   0.108   1.400  84.462
16.   7 GS    Power Racing Team                1:36.275   0.033   1.433  84.433
17.  13 GS    Unitech Racing                   1:36.335   0.060   1.493  84.381
18.  55 GS    Multimatic Motorsports           1:36.427   0.092   1.585  84.300
19.  83 GS    BGB Motorsports                  1:36.513   0.086   1.671  84.225
20.  21 GS    Bodymotion Racing                1:36.648   0.135   1.806  84.107
21.  07 GS    Powell Motorsport                1:36.883   0.235   2.041  83.903
22.  91 GS    Fiorano Racing                   1:36.933   0.050   2.091  83.860
23.  89 GS    LNS Motorsports                  1:36.970   0.037   2.128  83.828
24.  60 GS    Finlay Motorsports               1:37.133   0.163   2.291  83.687
25.  85 GS    Knobel Racing                    1:37.154   0.021   2.312  83.669
26.  90 GS    Automatic Racing                 1:37.828   0.674   2.986  83.093
27.  47 GS    TF Racing                        1:38.311   0.483   3.469  82.685
28.  58 GS    Rehagen Racing                   1:38.351   0.040   3.509  82.651
29.  63 GS    Team RPM                         1:38.606   0.255   3.764  82.437
30.  69 GS    Krohn Racing/TRG                 1:39.603   0.997   4.761  81.612
31.  00 ST    Georgian Bay Motorsports         1:39.831   0.228   4.989  81.426
32.  95 ST    Turner Motorsports               1:39.904   0.073   5.062  81.366
33.  64 ST    Matt Connolly Motorsports        1:39.965   0.061   5.123  81.316
34.  06 ST    Compass360/Racing                1:40.233   0.268   5.391  81.099
35.  27 ST    Bill Fenton Motorsports          1:40.325   0.092   5.483  81.025
36.  74 ST    Kensai Racing                    1:40.382   0.057   5.540  80.979
37.  12 ST    TC Kline Racing                  1:40.432   0.050   5.590  80.938
38.  97 ST    Turner Motorsports               1:40.477   0.045   5.635  80.902
39.  98 ST    Stewart Motorsports              1:40.512   0.035   5.670  80.874
40.  75 ST    Kensai Racing                    1:40.550   0.038   5.708  80.843
41.   0 ST    0                                1:40.676   0.126   5.834  80.742
42.  49 ST    Southpaw Racing                  1:40.960   0.284   6.118  80.515
43.   2 ST    2                                1:41.326   0.366   6.484  80.224
44.  01 ST    Georgian Bay Motorsports         1:41.493   0.167   6.651  80.092
45.  39 ST    Matt Connolly Motorsports        1:41.588   0.095   6.746  80.017
46.  20 ST    Nuzzo Motorsports                1:41.687   0.099   6.845  79.939
47.  43 GS    Team Sahlen                      1:41.905   0.218   7.063  79.768
48.  32 ST    Franklin American                1:42.103   0.198   7.261  79.614
49.  36 ST    Compass360/Racing                1:42.134   0.031   7.292  79.590
50.  51 ST    Fountain Motorsports             1:42.290   0.156   7.448  79.468
51.  68 ST    SpeedSource                      1:42.365   0.075   7.523  79.410
52.  10 GS    Champion Motorsports             1:42.383   0.018   7.541  79.396
53.  02 ST    Nuzzo Motorsports                1:42.465   0.082   7.623  79.332
54.  29 ST    Bill Fenton Motorsports          1:42.854   0.389   8.012  79.032
55.  71 ST    TC Kline Racing                  1:43.207   0.353   8.365  78.762
56.  72 ST    Anchor Racing                    1:43.266   0.059   8.424  78.717
57.  94 ST    Radial Motorsports               1:43.922   0.656   9.080  78.220
58.  62 ST    DEI Racers Group                 1:44.564   0.642   9.722  77.740
59.  50 ST    Southpaw Racing                  1:45.962   1.398  11.120  76.714
60.  09 GS    Automatic Racing                  No Time
61.  28 GS    Race Prep Motorsports             No Time
62.  41 ST    Team Sahlen                       No Time
63.  46 ST    Franklin American Mortgage        No Time
64.  57 ST    Baglieracing                      No Time
65.  65 ST    SpeedSource                       No Time
66.  66 ST    SpeedSource                       No Time
67.  67 ST    SpeedSource                       No Time
68.  70 ST    SpeedSource                       No Time
69.  87 GS    87                                No Time
70.  92 GS    Anchor Racing                     No Time

Write a comment
Show comments
About this article
Series Grand-Am
Drivers Matt Connolly , Bill Fenton
Teams Krohn Racing , Rehagen Racing , Turner Motorsport , Team Sahlen , Multimatic Motorsports , Automatic Racing , Bodymotion Racing , SpeedSource